Time;durP1;ratioP1;P1;durP2;ratioP2;P2;SDS_P1;SDS_P2;PMS_P1;PMS_P2;Temp;Humidity;BMP_temperature;BMP_pressure;BME280_temperature;BME280_humidity;BME280_pressure;Samples;Min_cycle;Max_cycle;Signal;HPM_P1;HPM_P2
2023/12/11 00:01:32;;;;;;;7.97;4.00;;;;;;;;;;4980478;28;87877;-62
2023/12/11 00:04:01;;;;;;;11.07;4.73;;;;;;;;;;4978258;28;88533;-62
2023/12/11 00:06:29;;;;;;;9.13;4.63;;;;;;;;;;4979957;28;89150;-62
2023/12/11 00:08:57;;;;;;;9.60;4.17;;;;;;;;;;4987270;28;89040;-62
2023/12/11 00:11:26;;;;;;;8.50;4.53;;;;;;;;;;4980300;28;87951;-62
2023/12/11 00:13:56;;;;;;;7.87;3.23;;;;;;;;;;4979871;28;89581;-62
2023/12/11 00:16:24;;;;;;;9.73;3.93;;;;;;;;;;4979827;28;88579;-63
2023/12/11 00:18:52;;;;;;;11.57;4.67;;;;;;;;;;4979414;28;88791;-62
2023/12/11 00:21:21;;;;;;;10.53;3.87;;;;;;;;;;4978807;28;87641;-62
2023/12/11 00:23:49;;;;;;;7.13;4.03;;;;;;;;;;4975979;28;89650;-61
2023/12/11 00:26:18;;;;;;;6.17;3.53;;;;;;;;;;4978723;28;89236;-62
2023/12/11 00:28:47;;;;;;;5.37;3.33;;;;;;;;;;4979378;28;88159;-62
2023/12/11 00:31:17;;;;;;;8.60;3.97;;;;;;;;;;4979310;28;87453;-62
2023/12/11 00:33:45;;;;;;;3.53;3.07;;;;;;;;;;4977703;28;90096;-62
2023/12/11 00:36:14;;;;;;;5.47;3.10;;;;;;;;;;4977951;28;89158;-62
2023/12/11 00:38:42;;;;;;;3.83;2.50;;;;;;;;;;4978672;28;88888;-62
2023/12/11 00:41:11;;;;;;;4.33;2.87;;;;;;;;;;4978690;28;87612;-62
2023/12/11 00:43:39;;;;;;;5.23;3.00;;;;;;;;;;4977990;28;89560;-61
2023/12/11 00:46:13;;;;;;;5.63;3.33;;;;;;;;;;4978851;28;89125;-61
2023/12/11 00:48:43;;;;;;;4.23;2.60;;;;;;;;;;4978637;28;88844;-62
2023/12/11 00:51:16;;;;;;;9.47;3.60;;;;;;;;;;4976573;28;87653;-62
2023/12/11 00:53:44;;;;;;;4.50;2.83;;;;;;;;;;4978466;28;89577;-62
2023/12/11 00:56:12;;;;;;;6.60;3.37;;;;;;;;;;4978355;28;89070;-63
2023/12/11 00:58:41;;;;;;;8.67;3.30;;;;;;;;;;4979367;28;87997;-63
2023/12/11 01:01:09;;;;;;;3.93;2.17;;;;;;;;;;4981500;28;87626;-63
2023/12/11 01:03:38;;;;;;;8.10;2.63;;;;;;;;;;4981776;28;90058;-63
2023/12/11 01:06:09;;;;;;;8.13;2.80;;;;;;;;;;4982497;28;89584;-63
2023/12/11 01:08:38;;;;;;;6.73;3.33;;;;;;;;;;4981810;28;88835;-63
2023/12/11 01:11:08;;;;;;;4.53;2.53;;;;;;;;;;4973132;28;87585;-62
2023/12/11 01:13:37;;;;;;;5.97;2.67;;;;;;;;;;4981927;28;89617;-63
2023/12/11 01:16:06;;;;;;;4.23;1.80;;;;;;;;;;4981893;28;88962;-63
2023/12/11 01:18:34;;;;;;;5.37;2.37;;;;;;;;;;4981256;28;88372;-63
2023/12/11 01:21:03;;;;;;;6.50;3.07;;;;;;;;;;4981941;28;87947;-63
2023/12/11 01:23:33;;;;;;;3.33;2.37;;;;;;;;;;4980824;28;89819;-63
2023/12/11 01:26:01;;;;;;;5.60;1.90;;;;;;;;;;4981678;28;89071;-62
2023/12/11 01:28:29;;;;;;;5.07;2.60;;;;;;;;;;4981514;28;88887;-63
2023/12/11 01:30:58;;;;;;;2.30;1.60;;;;;;;;;;4979480;28;87375;-63
2023/12/11 01:33:26;;;;;;;5.13;2.40;;;;;;;;;;4980965;28;88528;-63
2023/12/11 01:35:55;;;;;;;10.20;2.13;;;;;;;;;;4980643;28;89561;-62
2023/12/11 01:38:23;;;;;;;2.97;1.53;;;;;;;;;;4979131;28;88916;-62
2023/12/11 01:40:53;;;;;;;3.20;1.90;;;;;;;;;;4981921;28;87625;-63
2023/12/11 01:43:21;;;;;;;7.93;2.30;;;;;;;;;;4980815;28;89619;-63
2023/12/11 01:45:59;;;;;;;6.00;2.20;;;;;;;;;;4981441;28;89493;-63
2023/12/11 01:48:27;;;;;;;5.07;1.97;;;;;;;;;;4979727;28;89029;-62
2023/12/11 01:50:56;;;;;;;2.40;1.50;;;;;;;;;;4982331;28;87744;-63
2023/12/11 01:53:24;;;;;;;2.93;1.40;;;;;;;;;;4981315;28;89675;-62
2023/12/11 01:55:54;;;;;;;3.60;1.70;;;;;;;;;;4978791;28;89183;-63
2023/12/11 01:58:22;;;;;;;3.27;1.70;;;;;;;;;;4980796;28;91619;-63
2023/12/11 02:00:51;;;;;;;2.70;1.17;;;;;;;;;;4978459;28;87599;-62
2023/12/11 02:03:19;;;;;;;3.13;1.43;;;;;;;;;;4980087;28;89612;-63
2023/12/11 02:05:48;;;;;;;2.07;1.37;;;;;;;;;;4989335;28;88848;-63
2023/12/11 02:08:16;;;;;;;1.20;1.03;;;;;;;;;;4979076;28;88151;-63
2023/12/11 02:10:45;;;;;;;2.83;1.67;;;;;;;;;;4995152;28;87679;-62
2023/12/11 02:13:15;;;;;;;4.60;1.50;;;;;;;;;;5001577;28;89999;-62
2023/12/11 02:15:43;;;;;;;2.60;1.40;;;;;;;;;;4995062;28;88403;-62
2023/12/11 02:18:12;;;;;;;4.40;1.33;;;;;;;;;;4981792;28;88686;-62
2023/12/11 02:20:41;;;;;;;2.57;1.43;;;;;;;;;;4981635;28;89070;-64
2023/12/11 02:23:10;;;;;;;5.50;1.50;;;;;;;;;;4980266;28;90006;-64
2023/12/11 02:25:39;;;;;;;6.33;1.83;;;;;;;;;;4980421;28;88308;-63
2023/12/11 02:28:08;;;;;;;1.27;0.87;;;;;;;;;;4980191;28;88808;-61
2023/12/11 02:30:37;;;;;;;6.93;2.00;;;;;;;;;;4981614;28;87771;-63
2023/12/11 02:33:06;;;;;;;5.93;1.20;;;;;;;;;;4979799;28;89868;-63
2023/12/11 02:35:37;;;;;;;5.80;1.67;;;;;;;;;;4977854;28;89002;-66
2023/12/11 02:38:06;;;;;;;2.43;1.20;;;;;;;;;;4975191;28;89555;-65
2023/12/11 02:40:34;;;;;;;10.27;1.77;;;;;;;;;;4977098;28;87689;-66
2023/12/11 02:43:03;;;;;;;3.80;1.30;;;;;;;;;;4977447;28;89677;-65
2023/12/11 02:45:32;;;;;;;4.90;1.83;;;;;;;;;;4977791;28;88504;-67
2023/12/11 02:48:02;;;;;;;4.77;2.00;;;;;;;;;;4975292;28;88951;-65
2023/12/11 02:50:31;;;;;;;1.53;1.30;;;;;;;;;;4977322;28;88941;-65
2023/12/11 02:53:00;;;;;;;5.07;1.60;;;;;;;;;;4977270;28;90202;-65
2023/12/11 02:55:28;;;;;;;2.83;1.20;;;;;;;;;;4977319;28;88376;-65
2023/12/11 02:57:58;;;;;;;3.70;1.30;;;;;;;;;;4977316;28;88113;-64
2023/12/11 03:00:26;;;;;;;1.97;1.20;;;;;;;;;;4976710;28;88469;-65
2023/12/11 03:02:56;;;;;;;4.37;1.10;;;;;;;;;;4976203;28;89567;-64
2023/12/11 03:05:24;;;;;;;5.23;1.60;;;;;;;;;;4977200;28;89198;-64
2023/12/11 03:07:54;;;;;;;2.67;1.27;;;;;;;;;;4974859;28;89106;-64
2023/12/11 03:10:22;;;;;;;0.93;0.60;;;;;;;;;;4976991;28;88748;-66
2023/12/11 03:12:50;;;;;;;5.60;1.57;;;;;;;;;;4977021;28;90507;-65
2023/12/11 03:15:19;;;;;;;1.33;1.13;;;;;;;;;;4974789;28;89186;-64
2023/12/11 03:17:47;;;;;;;4.73;1.63;;;;;;;;;;4976895;28;91838;-64
2023/12/11 03:20:17;;;;;;;6.53;1.33;;;;;;;;;;4977207;28;87862;-64
2023/12/11 03:22:46;;;;;;;3.10;1.20;;;;;;;;;;4975916;28;89271;-64
2023/12/11 03:25:14;;;;;;;3.57;1.23;;;;;;;;;;4978075;28;89392;-64
2023/12/11 03:27:43;;;;;;;3.87;1.47;;;;;;;;;;4973905;28;90936;-65
2023/12/11 03:30:11;;;;;;;4.57;1.03;;;;;;;;;;4977868;28;87620;-65
2023/12/11 03:32:39;;;;;;;3.93;1.37;;;;;;;;;;4976671;28;89694;-64
2023/12/11 03:35:08;;;;;;;4.27;0.80;;;;;;;;;;4974786;28;89603;-65
2023/12/11 03:37:38;;;;;;;2.07;1.27;;;;;;;;;;4977772;28;89723;-64
2023/12/11 03:40:07;;;;;;;5.30;1.33;;;;;;;;;;4980515;28;87684;-64
2023/12/11 03:42:35;;;;;;;6.40;1.70;;;;;;;;;;4978343;28;89782;-64
2023/12/11 03:45:04;;;;;;;5.60;1.93;;;;;;;;;;4976817;28;89115;-64
2023/12/11 03:47:32;;;;;;;8.03;1.30;;;;;;;;;;4975800;28;88076;-64
2023/12/11 03:50:01;;;;;;;2.67;1.07;;;;;;;;;;4979231;28;88434;-65
2023/12/11 03:52:30;;;;;;;5.17;1.43;;;;;;;;;;4976571;28;89722;-65
2023/12/11 03:55:00;;;;;;;6.40;1.53;;;;;;;;;;4974660;28;87637;-65
2023/12/11 03:57:28;;;;;;;9.20;1.40;;;;;;;;;;4976374;28;88223;-65
2023/12/11 03:59:57;;;;;;;6.40;1.40;;;;;;;;;;4977950;28;88998;-66
2023/12/11 04:02:25;;;;;;;7.73;1.67;;;;;;;;;;4975321;28;90505;-64
2023/12/11 04:04:54;;;;;;;4.67;1.33;;;;;;;;;;4976551;28;91564;-64
2023/12/11 04:07:23;;;;;;;10.33;1.93;;;;;;;;;;4974002;28;88980;-65
2023/12/11 04:09:51;;;;;;;2.73;0.90;;;;;;;;;;4979753;28;87719;-66
2023/12/11 04:12:21;;;;;;;5.43;2.63;;;;;;;;;;4979085;28;89781;-66
2023/12/11 04:14:49;;;;;;;7.13;1.47;;;;;;;;;;4977236;28;88286;-66
2023/12/11 04:17:17;;;;;;;4.23;1.57;;;;;;;;;;4978645;28;88795;-65
2023/12/11 04:19:46;;;;;;;2.77;1.47;;;;;;;;;;4980103;28;87802;-65
2023/12/11 04:22:14;;;;;;;5.20;1.20;;;;;;;;;;4978958;28;88570;-66
2023/12/11 04:24:43;;;;;;;1.67;0.73;;;;;;;;;;4979831;28;89180;-66
2023/12/11 04:27:11;;;;;;;5.97;1.30;;;;;;;;;;4979357;28;88881;-64
2023/12/11 04:29:41;;;;;;;5.30;1.73;;;;;;;;;;4979490;28;88095;-64
2023/12/11 04:32:09;;;;;;;1.63;1.17;;;;;;;;;;4978961;28;90018;-63
2023/12/11 04:34:38;;;;;;;6.90;1.40;;;;;;;;;;4981609;28;89104;-63
2023/12/11 04:37:06;;;;;;;4.60;1.20;;;;;;;;;;4981984;28;88246;-63
2023/12/11 04:39:35;;;;;;;5.27;1.60;;;;;;;;;;4983607;28;87679;-64
2023/12/11 04:42:03;;;;;;;3.00;1.10;;;;;;;;;;4979401;28;89899;-64
2023/12/11 04:44:31;;;;;;;7.20;1.20;;;;;;;;;;4981156;28;89136;-64
2023/12/11 04:47:01;;;;;;;6.53;1.63;;;;;;;;;;4984717;28;87740;-64
2023/12/11 04:49:29;;;;;;;10.10;1.47;;;;;;;;;;4982257;28;87641;-63
2023/12/11 04:51:59;;;;;;;1.53;1.10;;;;;;;;;;4983096;28;88502;-64
2023/12/11 04:54:28;;;;;;;7.50;1.70;;;;;;;;;;4980405;28;89522;-64
2023/12/11 04:56:56;;;;;;;3.57;1.40;;;;;;;;;;4982066;28;88812;-64
2023/12/11 04:59:24;;;;;;;5.83;1.73;;;;;;;;;;4982300;28;87460;-64
2023/12/11 05:01:53;;;;;;;9.23;1.60;;;;;;;;;;4979386;28;89639;-64
2023/12/11 05:04:23;;;;;;;7.47;1.83;;;;;;;;;;4981338;28;87869;-64
2023/12/11 05:06:52;;;;;;;1.70;1.20;;;;;;;;;;4980071;28;90884;-64
2023/12/11 05:09:20;;;;;;;4.20;1.80;;;;;;;;;;4980631;28;88179;-64
2023/12/11 05:11:49;;;;;;;5.83;2.07;;;;;;;;;;4981212;28;89838;-64
2023/12/11 05:14:17;;;;;;;2.83;1.60;;;;;;;;;;4980980;28;88346;-63
2023/12/11 05:16:46;;;;;;;5.90;1.97;;;;;;;;;;4982683;28;88829;-64
2023/12/11 05:19:14;;;;;;;2.03;1.07;;;;;;;;;;4980919;28;87777;-64
2023/12/11 05:21:45;;;;;;;4.33;2.00;;;;;;;;;;4979336;28;89677;-64
2023/12/11 05:24:13;;;;;;;4.10;1.40;;;;;;;;;;4981346;28;88788;-64
2023/12/11 05:26:42;;;;;;;5.00;1.20;;;;;;;;;;4981529;28;88300;-64
2023/12/11 05:29:10;;;;;;;4.83;1.33;;;;;;;;;;4981489;28;87645;-64
2023/12/11 05:31:38;;;;;;;1.47;1.37;;;;;;;;;;4980724;28;89648;-64
2023/12/11 05:34:07;;;;;;;2.23;1.03;;;;;;;;;;4981210;28;89430;-64
2023/12/11 05:36:35;;;;;;;3.27;1.73;;;;;;;;;;4981226;28;88903;-64
2023/12/11 05:39:06;;;;;;;9.07;1.83;;;;;;;;;;4982864;28;87594;-65
2023/12/11 05:41:35;;;;;;;7.63;2.27;;;;;;;;;;4980959;28;90145;-64
2023/12/11 05:44:03;;;;;;;7.13;1.70;;;;;;;;;;4980427;28;89115;-64
2023/12/11 05:46:34;;;;;;;5.80;2.27;;;;;;;;;;4981242;28;88295;-64
2023/12/11 05:49:02;;;;;;;2.40;1.40;;;;;;;;;;4982038;28;87618;-64
2023/12/11 05:51:31;;;;;;;2.40;1.20;;;;;;;;;;4981276;28;89844;-64
2023/12/11 05:53:59;;;;;;;3.70;2.07;;;;;;;;;;4977838;28;89125;-65
2023/12/11 05:56:30;;;;;;;6.47;2.33;;;;;;;;;;4981075;28;89210;-64
2023/12/11 05:58:58;;;;;;;5.10;1.83;;;;;;;;;;4983447;28;87604;-64
2023/12/11 06:01:27;;;;;;;4.43;2.10;;;;;;;;;;4980506;28;89655;-64
2023/12/11 06:03:55;;;;;;;3.70;1.70;;;;;;;;;;4980641;28;88046;-64
2023/12/11 06:06:24;;;;;;;2.80;1.87;;;;;;;;;;4977682;28;88873;-64
2023/12/11 06:08:55;;;;;;;4.73;1.30;;;;;;;;;;4980732;28;87281;-65
2023/12/11 06:11:24;;;;;;;3.53;1.33;;;;;;;;;;4980100;28;89753;-64
2023/12/11 06:13:53;;;;;;;4.40;1.23;;;;;;;;;;4980937;28;88022;-64
2023/12/11 06:16:22;;;;;;;3.70;2.03;;;;;;;;;;4980652;28;88091;-64
2023/12/11 06:18:50;;;;;;;1.17;0.80;;;;;;;;;;4982099;28;87720;-64
2023/12/11 06:21:19;;;;;;;1.83;1.27;;;;;;;;;;4981898;28;88448;-64
2023/12/11 06:23:48;;;;;;;2.10;1.07;;;;;;;;;;4980336;28;88945;-64
2023/12/11 06:26:26;;;;;;;4.23;1.50;;;;;;;;;;4982237;28;88898;-64
2023/12/11 06:28:57;;;;;;;0.77;0.77;;;;;;;;;;4980514;28;87461;-65
2023/12/11 06:31:25;;;;;;;6.07;1.43;;;;;;;;;;4980154;28;89609;-65
2023/12/11 06:33:54;;;;;;;1.07;0.80;;;;;;;;;;4975896;28;88097;-65
2023/12/11 06:36:23;;;;;;;15.57;2.07;;;;;;;;;;4978087;28;88768;-66
2023/12/11 06:38:51;;;;;;;3.73;1.23;;;;;;;;;;4980536;28;88631;-65
2023/12/11 06:41:19;;;;;;;2.40;1.27;;;;;;;;;;4981279;28;89687;-65
2023/12/11 06:43:48;;;;;;;4.73;1.50;;;;;;;;;;4977929;28;89176;-67
2023/12/11 06:46:18;;;;;;;1.10;0.93;;;;;;;;;;4981812;28;88835;-66
2023/12/11 06:48:46;;;;;;;1.73;0.90;;;;;;;;;;4980544;28;87547;-65
2023/12/11 06:51:16;;;;;;;4.47;1.43;;;;;;;;;;4979707;28;89703;-66
2023/12/11 06:53:44;;;;;;;2.97;0.90;;;;;;;;;;4980290;28;89198;-66
2023/12/11 06:56:18;;;;;;;4.07;1.83;;;;;;;;;;4976328;28;88896;-66
2023/12/11 06:58:47;;;;;;;1.83;0.83;;;;;;;;;;4980313;28;89017;-66
2023/12/11 07:01:16;;;;;;;1.50;1.20;;;;;;;;;;4976399;28;90107;-66
2023/12/11 07:03:48;;;;;;;1.70;0.90;;;;;;;;;;4979644;28;89191;-66
2023/12/11 07:06:18;;;;;;;0.90;0.87;;;;;;;;;;4981600;28;88131;-66
2023/12/11 07:08:46;;;;;;;4.10;1.00;;;;;;;;;;4980026;28;88654;-66
2023/12/11 07:11:15;;;;;;;1.47;0.77;;;;;;;;;;4978734;28;89679;-66
2023/12/11 07:13:43;;;;;;;2.97;0.87;;;;;;;;;;4979921;28;87932;-65
2023/12/11 07:16:12;;;;;;;9.93;1.47;;;;;;;;;;4980202;28;88830;-65
2023/12/11 07:18:41;;;;;;;8.87;1.20;;;;;;;;;;4979501;28;87564;-65
2023/12/11 07:21:10;;;;;;;7.10;1.37;;;;;;;;;;4980156;28;89669;-65
2023/12/11 07:23:39;;;;;;;1.90;0.90;;;;;;;;;;4980885;28;87981;-65
2023/12/11 07:26:09;;;;;;;2.43;0.70;;;;;;;;;;4988368;28;88944;-66
2023/12/11 07:28:38;;;;;;;3.07;1.13;;;;;;;;;;4979126;28;87650;-65
2023/12/11 07:31:07;;;;;;;3.00;0.87;;;;;;;;;;4979725;28;88610;-69
2023/12/11 07:33:35;;;;;;;1.13;0.87;;;;;;;;;;4981348;28;89307;-64
2023/12/11 07:36:05;;;;;;;2.83;0.87;;;;;;;;;;4976671;28;88922;-65
2023/12/11 07:38:34;;;;;;;1.93;1.10;;;;;;;;;;4978221;28;87656;-66
2023/12/11 07:41:04;;;;;;;3.47;1.27;;;;;;;;;;4979011;28;89756;-66
2023/12/11 07:43:35;;;;;;;1.80;0.90;;;;;;;;;;4976467;28;89197;-64
2023/12/11 07:46:04;;;;;;;1.43;1.00;;;;;;;;;;4978029;28;89221;-64
2023/12/11 07:48:33;;;;;;;5.10;1.27;;;;;;;;;;4979564;28;87698;-64
2023/12/11 07:51:01;;;;;;;7.63;1.23;;;;;;;;;;4978422;28;92452;-65
2023/12/11 07:53:30;;;;;;;2.17;1.17;;;;;;;;;;4978524;28;89150;-65
2023/12/11 07:55:59;;;;;;;3.73;1.60;;;;;;;;;;4977643;28;88248;-66
2023/12/11 07:58:28;;;;;;;0.90;0.90;;;;;;;;;;4978593;28;87627;-65
2023/12/11 08:00:56;;;;;;;5.63;1.57;;;;;;;;;;4977377;28;89705;-65
2023/12/11 08:03:25;;;;;;;3.40;0.80;;;;;;;;;;4979451;28;89253;-65
2023/12/11 08:05:53;;;;;;;2.90;1.30;;;;;;;;;;4978287;28;88747;-65
2023/12/11 08:08:22;;;;;;;1.57;1.00;;;;;;;;;;4979375;28;87821;-70
2023/12/11 08:10:50;;;;;;;1.07;0.97;;;;;;;;;;4979843;28;89663;-70
2023/12/11 08:13:20;;;;;;;2.77;1.33;;;;;;;;;;4979040;28;88948;-71
2023/12/11 08:15:48;;;;;;;2.27;1.23;;;;;;;;;;4978596;28;87721;-72
2023/12/11 08:18:17;;;;;;;2.40;1.30;;;;;;;;;;4978745;28;88843;-70
2023/12/11 08:20:45;;;;;;;1.30;0.90;;;;;;;;;;4974359;28;89491;-69
2023/12/11 08:23:16;;;;;;;1.27;0.93;;;;;;;;;;4975946;28;88106;-67
2023/12/11 08:25:44;;;;;;;1.60;1.20;;;;;;;;;;4974044;28;88926;-68
2023/12/11 08:28:13;;;;;;;2.70;0.83;;;;;;;;;;4975288;28;87811;-69
2023/12/11 08:30:43;;;;;;;2.37;1.37;;;;;;;;;;4977083;28;89564;-68
2023/12/11 08:33:11;;;;;;;2.40;1.27;;;;;;;;;;4969862;28;89466;-62
2023/12/11 08:35:39;;;;;;;2.70;1.80;;;;;;;;;;4973373;28;88922;-62
2023/12/11 08:38:08;;;;;;;3.03;1.60;;;;;;;;;;4975515;28;89496;-62
2023/12/11 08:40:36;;;;;;;4.60;1.77;;;;;;;;;;4974821;28;89671;-62
2023/12/11 08:43:04;;;;;;;2.20;1.33;;;;;;;;;;4972773;28;89289;-64
2023/12/11 08:45:34;;;;;;;2.97;1.70;;;;;;;;;;4973689;28;88157;-65
2023/12/11 08:48:04;;;;;;;2.47;1.33;;;;;;;;;;4977001;28;88551;-63
2023/12/11 08:50:32;;;;;;;4.70;1.53;;;;;;;;;;4973312;28;89895;-63
2023/12/11 08:53:01;;;;;;;1.63;1.30;;;;;;;;;;4975808;28;89177;-63
2023/12/11 08:55:29;;;;;;;2.40;1.67;;;;;;;;;;4977200;28;88861;-66
2023/12/11 08:57:58;;;;;;;3.33;1.40;;;;;;;;;;4976606;28;88789;-65
2023/12/11 09:00:26;;;;;;;4.33;1.77;;;;;;;;;;4972855;28;89755;-65
2023/12/11 09:02:54;;;;;;;2.57;1.53;;;;;;;;;;4974636;28;89157;-65
2023/12/11 09:05:25;;;;;;;2.90;1.83;;;;;;;;;;4974758;28;88789;-80
2023/12/11 09:07:55;;;;;;;2.57;1.60;;;;;;;;;;4971223;28;87737;-65
2023/12/11 09:10:23;;;;;;;2.90;1.50;;;;;;;;;;4974248;28;89727;-67
2023/12/11 09:12:53;;;;;;;2.93;1.30;;;;;;;;;;4976334;28;89187;-65
2023/12/11 09:15:21;;;;;;;7.23;1.63;;;;;;;;;;4974005;28;89224;-66
2023/12/11 09:17:50;;;;;;;5.70;1.40;;;;;;;;;;4978222;28;87800;-67
2023/12/11 09:20:18;;;;;;;1.27;1.17;;;;;;;;;;4979788;28;89701;-66
2023/12/11 09:22:48;;;;;;;3.17;1.43;;;;;;;;;;4981801;28;89278;-67
2023/12/11 09:25:16;;;;;;;1.70;1.33;;;;;;;;;;4978797;28;88911;-67
2023/12/11 09:27:45;;;;;;;1.40;1.03;;;;;;;;;;4978026;28;87635;-68
2023/12/11 09:30:16;;;;;;;1.87;1.40;;;;;;;;;;4980762;28;92386;-68
2023/12/11 09:32:44;;;;;;;2.73;1.37;;;;;;;;;;4977245;28;88829;-69
2023/12/11 09:35:13;;;;;;;1.17;0.93;;;;;;;;;;4981247;28;87457;-66
2023/12/11 09:37:42;;;;;;;1.20;1.10;;;;;;;;;;4980618;28;87757;-67
2023/12/11 09:40:13;;;;;;;2.13;0.87;;;;;;;;;;4985336;28;88036;-67
2023/12/11 09:42:43;;;;;;;7.03;1.77;;;;;;;;;;4987108;28;89433;-66
2023/12/11 09:45:11;;;;;;;1.67;0.90;;;;;;;;;;4996471;28;89013;-65
2023/12/11 09:47:41;;;;;;;2.07;1.10;;;;;;;;;;4988446;28;87756;-67
2023/12/11 09:50:10;;;;;;;1.20;0.97;;;;;;;;;;4993386;28;89852;-68
2023/12/11 09:52:40;;;;;;;2.07;1.03;;;;;;;;;;4989062;28;89229;-69
2023/12/11 09:55:09;;;;;;;4.03;1.10;;;;;;;;;;4973478;28;89779;-67
2023/12/11 09:57:39;;;;;;;2.87;1.10;;;;;;;;;;4981473;28;87624;-67
2023/12/11 10:00:08;;;;;;;2.80;1.57;;;;;;;;;;4980203;28;89639;-67
2023/12/11 10:02:36;;;;;;;1.13;0.93;;;;;;;;;;4981767;28;88979;-68
2023/12/11 10:05:05;;;;;;;3.57;1.30;;;;;;;;;;4980287;28;88858;-68
2023/12/11 10:07:33;;;;;;;1.80;1.40;;;;;;;;;;4978810;28;87559;-69
2023/12/11 10:10:15;;;;;;;5.77;1.50;;;;;;;;;;4981474;28;89608;-69
2023/12/11 10:12:45;;;;;;;1.50;1.23;;;;;;;;;;4984343;28;88988;-68
2023/12/11 10:15:13;;;;;;;1.50;1.40;;;;;;;;;;4979109;28;88834;-68
2023/12/11 10:17:42;;;;;;;2.60;1.40;;;;;;;;;;4977867;28;87639;-68
2023/12/11 10:20:15;;;;;;;1.27;1.17;;;;;;;;;;4975448;28;89533;-68
2023/12/11 10:22:44;;;;;;;3.80;1.33;;;;;;;;;;4976011;28;89225;-68
2023/12/11 10:25:12;;;;;;;1.67;1.13;;;;;;;;;;4980496;28;88819;-68
2023/12/11 10:27:41;;;;;;;3.30;1.40;;;;;;;;;;4976763;28;87525;-67
2023/12/11 10:30:12;;;;;;;3.90;1.30;;;;;;;;;;4974744;28;89528;-67
2023/12/11 10:32:40;;;;;;;2.63;1.60;;;;;;;;;;4978814;28;89325;-67
2023/12/11 10:35:09;;;;;;;2.53;1.17;;;;;;;;;;4977232;28;88482;-67
2023/12/11 10:37:38;;;;;;;2.17;1.50;;;;;;;;;;4971649;28;87457;-71
2023/12/11 10:40:07;;;;;;;3.10;1.50;;;;;;;;;;4970565;28;90089;-71
2023/12/11 10:42:36;;;;;;;1.53;1.00;;;;;;;;;;4975271;28;90187;-69
2023/12/11 10:45:05;;;;;;;3.83;1.30;;;;;;;;;;4969603;28;89555;-70
2023/12/11 10:47:35;;;;;;;2.27;1.33;;;;;;;;;;4980014;28;87785;-69
2023/12/11 10:50:03;;;;;;;1.40;1.10;;;;;;;;;;4994104;28;89733;-67
2023/12/11 10:52:32;;;;;;;4.63;1.80;;;;;;;;;;4980566;28;89697;-68
2023/12/11 10:55:01;;;;;;;2.30;1.37;;;;;;;;;;4979630;28;88728;-69
2023/12/11 10:57:29;;;;;;;1.10;0.80;;;;;;;;;;4980068;28;87727;-67
2023/12/11 10:59:58;;;;;;;1.87;1.10;;;;;;;;;;4977324;28;89757;-70
2023/12/11 11:02:26;;;;;;;2.53;1.00;;;;;;;;;;4976516;28;88024;-72
2023/12/11 11:04:56;;;;;;;2.17;1.30;;;;;;;;;;4981255;28;89005;-70
2023/12/11 11:07:26;;;;;;;1.73;1.20;;;;;;;;;;4982007;28;87616;-71
2023/12/11 11:09:59;;;;;;;1.90;1.10;;;;;;;;;;4973518;28;89665;-70
2023/12/11 11:12:31;;;;;;;1.53;1.23;;;;;;;;;;4983268;28;89402;-70
2023/12/11 11:14:59;;;;;;;2.47;1.27;;;;;;;;;;4980649;28;88573;-72
2023/12/11 11:17:28;;;;;;;1.17;1.07;;;;;;;;;;4968933;28;88427;-73
2023/12/11 11:20:12;;;;;;;1.63;0.70;;;;;;;;;;4967873;28;89765;-78
2023/12/11 11:22:41;;;;;;;1.30;0.87;;;;;;;;;;4982358;28;89087;-75
2023/12/11 11:25:28;;;;;;;1.03;0.90;;;;;;;;;;4982824;28;88953;-75
2023/12/11 11:27:57;;;;;;;2.60;1.13;;;;;;;;;;4976679;28;87632;-72
2023/12/11 11:30:44;;;;;;;1.63;0.83;;;;;;;;;;4973578;28;88652;-76
2023/12/11 11:33:13;;;;;;;1.73;1.03;;;;;;;;;;4980442;28;89152;-73
2023/12/11 11:35:52;;;;;;;1.33;0.90;;;;;;;;;;4980624;28;88878;-72
2023/12/11 11:38:21;;;;;;;1.80;0.87;;;;;;;;;;4956188;28;87521;-71
2023/12/11 11:40:51;;;;;;;1.10;0.80;;;;;;;;;;4952145;28;88908;-71
2023/12/11 11:43:20;;;;;;;2.73;0.70;;;;;;;;;;4958065;28;87895;-72
2023/12/11 11:45:48;;;;;;;1.23;0.87;;;;;;;;;;4953617;28;89536;-71
2023/12/11 11:48:16;;;;;;;1.17;0.90;;;;;;;;;;4956449;28;87642;-69
2023/12/11 11:50:53;;;;;;;3.30;1.00;;;;;;;;;;4949634;28;89381;-70
2023/12/11 11:53:22;;;;;;;1.27;0.60;;;;;;;;;;4961049;28;89426;-70
2023/12/11 11:55:50;;;;;;;0.90;0.63;;;;;;;;;;4962038;28;88734;-70
2023/12/11 11:58:19;;;;;;;5.57;1.17;;;;;;;;;;4948002;28;87589;-71
2023/12/11 12:00:49;;;;;;;1.40;0.80;;;;;;;;;;4952230;28;89788;-69
2023/12/11 12:03:17;;;;;;;0.70;0.60;;;;;;;;;;4953923;28;89040;-71
2023/12/11 12:05:56;;;;;;;0.67;0.63;;;;;;;;;;4960735;28;88134;-72
2023/12/11 12:08:24;;;;;;;0.73;0.70;;;;;;;;;;4941497;28;87625;-69
2023/12/11 12:10:56;;;;;;;1.20;0.57;;;;;;;;;;4957094;28;90041;-71
2023/12/11 12:13:27;;;;;;;1.13;0.60;;;;;;;;;;4959518;28;89036;-68
2023/12/11 12:15:56;;;;;;;1.40;1.07;;;;;;;;;;4961150;28;88844;-67
2023/12/11 12:18:24;;;;;;;2.13;0.90;;;;;;;;;;4960417;28;87543;-62
2023/12/11 12:21:03;;;;;;;2.77;1.27;;;;;;;;;;4960366;28;89646;-68
2023/12/11 12:23:31;;;;;;;5.27;1.10;;;;;;;;;;4960021;28;89205;-65
2023/12/11 12:26:00;;;;;;;3.87;1.93;;;;;;;;;;4960200;28;88741;-71
2023/12/11 12:28:28;;;;;;;5.23;1.87;;;;;;;;;;4960762;28;87617;-71
2023/12/11 12:30:57;;;;;;;4.90;1.20;;;;;;;;;;4950615;28;89379;-65
2023/12/11 12:33:25;;;;;;;9.17;2.27;;;;;;;;;;4960567;28;89165;-67
2023/12/11 12:35:54;;;;;;;1.50;1.40;;;;;;;;;;4960167;28;88749;-66
2023/12/11 12:38:23;;;;;;;2.93;1.40;;;;;;;;;;4980343;28;87743;-78
2023/12/11 12:40:53;;;;;;;7.20;1.30;;;;;;;;;;4979879;28;88507;-72
2023/12/11 12:43:22;;;;;;;2.83;1.07;;;;;;;;;;4980692;28;89520;-77
2023/12/11 12:45:50;;;;;;;4.07;0.90;;;;;;;;;;4979920;28;88899;-72
2023/12/11 12:48:28;;;;;;;4.00;1.30;;;;;;;;;;4980711;28;87663;-68
2023/12/11 12:51:05;;;;;;;5.57;0.67;;;;;;;;;;4981117;28;89501;-68
2023/12/11 12:53:35;;;;;;;1.10;0.97;;;;;;;;;;4979084;28;87656;-70
2023/12/11 12:56:04;;;;;;;1.27;0.50;;;;;;;;;;4982810;28;88042;-78
2023/12/11 12:58:32;;;;;;;1.30;0.70;;;;;;;;;;4981100;28;87544;-68
2023/12/11 13:01:01;;;;;;;6.13;0.80;;;;;;;;;;4980690;28;89954;-70
2023/12/11 13:03:30;;;;;;;7.33;0.93;;;;;;;;;;4984267;28;89095;-70
2023/12/11 13:05:59;;;;;;;1.83;0.90;;;;;;;;;;4975914;28;89001;-66
2023/12/11 13:08:28;;;;;;;1.93;1.03;;;;;;;;;;4977006;28;90401;-66
2023/12/11 13:10:58;;;;;;;5.37;1.50;;;;;;;;;;4989425;28;89681;-65
2023/12/11 13:13:27;;;;;;;9.40;4.33;;;;;;;;;;4986481;28;89280;-65
2023/12/11 13:15:56;;;;;;;11.27;6.63;;;;;;;;;;4977871;28;89064;-66
2023/12/11 13:18:25;;;;;;;13.40;8.60;;;;;;;;;;4989627;28;87360;-70
2023/12/11 13:20:54;;;;;;;12.37;7.57;;;;;;;;;;4982217;28;89673;-67
2023/12/11 13:23:24;;;;;;;11.10;6.90;;;;;;;;;;4982484;28;88250;-68
2023/12/11 13:25:52;;;;;;;10.33;6.00;;;;;;;;;;4981825;28;88878;-71
2023/12/11 13:28:22;;;;;;;14.07;6.10;;;;;;;;;;4977168;28;87444;-69
2023/12/11 13:30:50;;;;;;;7.10;4.63;;;;;;;;;;4982180;28;89581;-70
2023/12/11 13:33:18;;;;;;;6.50;4.17;;;;;;;;;;4966123;28;89080;-68
2023/12/11 13:35:47;;;;;;;5.47;3.90;;;;;;;;;;4981895;28;87966;-65
2023/12/11 13:38:16;;;;;;;6.20;3.43;;;;;;;;;;4985054;28;87749;-68
2023/12/11 13:40:44;;;;;;;6.50;3.00;;;;;;;;;;4989452;28;89560;-69
2023/12/11 13:43:12;;;;;;;4.57;2.47;;;;;;;;;;4981103;28;89448;-68
2023/12/11 13:45:42;;;;;;;4.80;2.83;;;;;;;;;;4978999;28;88185;-67
2023/12/11 13:48:11;;;;;;;4.97;2.40;;;;;;;;;;4978536;28;87799;-66
2023/12/11 13:50:40;;;;;;;3.47;2.30;;;;;;;;;;4973709;28;89822;-67
2023/12/11 13:53:08;;;;;;;3.43;1.63;;;;;;;;;;4980483;28;89063;-65
2023/12/11 13:55:37;;;;;;;4.43;2.60;;;;;;;;;;4982142;28;88983;-65
2023/12/11 13:58:05;;;;;;;5.13;2.17;;;;;;;;;;4982820;28;87426;-62
2023/12/11 14:00:33;;;;;;;5.67;3.07;;;;;;;;;;4976427;28;88580;-68
2023/12/11 14:03:03;;;;;;;10.93;3.77;;;;;;;;;;4974415;28;89076;-69
2023/12/11 14:05:32;;;;;;;4.40;3.27;;;;;;;;;;4978685;28;88646;-67
2023/12/11 14:08:02;;;;;;;8.27;2.83;;;;;;;;;;4974967;28;87764;-68
2023/12/11 14:10:31;;;;;;;3.77;2.33;;;;;;;;;;4981485;28;89660;-69
2023/12/11 14:12:59;;;;;;;5.40;3.10;;;;;;;;;;4975161;28;89040;-68
2023/12/11 14:15:28;;;;;;;2.83;2.20;;;;;;;;;;4981536;28;88955;-68
2023/12/11 14:17:57;;;;;;;3.37;2.33;;;;;;;;;;4982186;28;87427;-67
2023/12/11 14:20:27;;;;;;;3.20;1.43;;;;;;;;;;4981616;28;89871;-69
2023/12/11 14:22:55;;;;;;;3.90;2.30;;;;;;;;;;4976332;28;89044;-67
2023/12/11 14:25:24;;;;;;;3.20;1.60;;;;;;;;;;4976768;28;87903;-71
2023/12/11 14:27:54;;;;;;;2.90;1.40;;;;;;;;;;4980857;28;87660;-66
2023/12/11 14:30:22;;;;;;;3.50;1.30;;;;;;;;;;4979806;28;89765;-67
2023/12/11 14:32:50;;;;;;;1.83;0.90;;;;;;;;;;4977860;28;89305;-69
2023/12/11 14:35:19;;;;;;;1.80;1.23;;;;;;;;;;4981050;28;88052;-68
2023/12/11 14:37:49;;;;;;;3.57;1.17;;;;;;;;;;4983576;28;87797;-69
2023/12/11 14:40:17;;;;;;;1.30;0.90;;;;;;;;;;4979768;28;89669;-68
2023/12/11 14:42:46;;;;;;;1.80;1.03;;;;;;;;;;4979617;28;89450;-69
2023/12/11 14:45:14;;;;;;;1.70;0.60;;;;;;;;;;4982355;28;88822;-75
2023/12/11 14:47:43;;;;;;;2.17;1.43;;;;;;;;;;4980200;28;87629;-68
2023/12/11 14:50:11;;;;;;;11.50;5.70;;;;;;;;;;4988349;28;89681;-68
2023/12/11 14:52:40;;;;;;;11.50;8.60;;;;;;;;;;4982754;28;87998;-68
2023/12/11 14:55:10;;;;;;;12.00;6.00;;;;;;;;;;4986053;28;88886;-68